createdAt,value
2018-09-15T00:00:55.559Z,99.90
2018-09-15T00:03:24.153Z,99.90
2018-09-15T00:05:52.290Z,99.90
2018-09-15T00:08:20.374Z,99.90
2018-09-15T00:10:48.778Z,99.90
2018-09-15T00:13:17.280Z,99.90
2018-09-15T00:15:45.380Z,99.90
2018-09-15T00:18:15.054Z,99.90
2018-09-15T00:20:43.167Z,99.90
2018-09-15T00:23:11.878Z,99.90
2018-09-15T00:25:40.710Z,99.90
2018-09-15T00:28:09.495Z,99.90
2018-09-15T00:30:37.574Z,99.90
2018-09-15T00:33:05.751Z,99.90
2018-09-15T00:35:33.954Z,99.90
2018-09-15T00:38:02.085Z,99.90
2018-09-15T00:40:30.194Z,99.90
2018-09-15T00:42:58.337Z,99.90
2018-09-15T00:45:26.474Z,99.90
2018-09-15T00:47:54.558Z,99.90
2018-09-15T00:50:22.659Z,99.90
2018-09-15T00:52:50.753Z,99.90
2018-09-15T00:55:18.855Z,99.90
2018-09-15T00:57:46.937Z,99.90
2018-09-15T01:00:15.029Z,99.90
2018-09-15T01:02:43.105Z,99.90
2018-09-15T01:05:11.182Z,99.90
2018-09-15T01:07:39.248Z,99.90
2018-09-15T01:10:07.521Z,99.90
2018-09-15T01:12:35.611Z,99.90
2018-09-15T01:15:03.718Z,99.90
2018-09-15T01:17:31.787Z,99.90
2018-09-15T01:19:59.903Z,99.90
2018-09-15T01:22:27.978Z,99.90
2018-09-15T01:24:56.077Z,99.90
2018-09-15T01:27:24.140Z,99.90
2018-09-15T01:29:52.230Z,99.90
2018-09-15T01:32:20.322Z,99.90
2018-09-15T01:34:48.449Z,99.90
2018-09-15T01:37:16.662Z,99.90
2018-09-15T01:39:44.736Z,99.90
2018-09-15T01:42:12.807Z,99.90
2018-09-15T01:44:40.929Z,99.90
2018-09-15T01:47:09.016Z,99.90
2018-09-15T01:49:37.105Z,99.90
2018-09-15T01:52:05.193Z,99.90
2018-09-15T01:54:33.305Z,99.90
2018-09-15T01:57:01.373Z,99.90
2018-09-15T01:59:29.466Z,99.90
2018-09-15T02:01:57.552Z,99.90
2018-09-15T02:04:25.635Z,99.90
2018-09-15T02:06:53.798Z,99.90
2018-09-15T02:09:21.877Z,99.90
2018-09-15T02:11:49.936Z,99.90
2018-09-15T02:14:18.052Z,99.90
2018-09-15T02:16:46.124Z,99.90
2018-09-15T02:19:14.229Z,99.90
2018-09-15T02:21:42.324Z,99.90
2018-09-15T02:24:10.429Z,99.90
2018-09-15T02:26:38.502Z,99.90
2018-09-15T02:29:06.629Z,99.90
2018-09-15T02:31:34.726Z,99.90
2018-09-15T02:34:02.817Z,99.90
2018-09-15T02:36:30.894Z,99.90
2018-09-15T02:38:58.989Z,99.90
2018-09-15T02:41:27.080Z,99.90
2018-09-15T02:43:55.240Z,99.90
2018-09-15T02:46:23.322Z,99.90
2018-09-15T02:48:51.422Z,99.90
2018-09-15T02:51:19.518Z,99.90
2018-09-15T02:53:47.607Z,99.90
2018-09-15T02:56:15.690Z,99.90
2018-09-15T02:58:43.765Z,99.90
2018-09-15T03:01:11.877Z,99.90
2018-09-15T03:03:39.972Z,99.90
2018-09-15T03:06:08.070Z,99.90
2018-09-15T03:08:36.169Z,99.90
2018-09-15T03:11:04.293Z,99.90
2018-09-15T03:13:32.396Z,99.90
2018-09-15T03:16:00.505Z,99.90
2018-09-15T03:18:28.581Z,99.90
2018-09-15T03:20:56.648Z,99.90
2018-09-15T03:23:24.765Z,99.90
2018-09-15T03:25:52.858Z,99.90
2018-09-15T03:28:20.920Z,99.90
2018-09-15T03:30:49.069Z,99.90
2018-09-15T03:33:17.246Z,99.90
2018-09-15T03:35:45.325Z,99.90
2018-09-15T03:38:13.473Z,99.90
2018-09-15T03:40:41.553Z,99.90
2018-09-15T03:43:09.625Z,99.90
2018-09-15T03:45:37.705Z,99.90
2018-09-15T03:48:05.812Z,99.90
2018-09-15T03:50:33.968Z,99.90
2018-09-15T03:53:02.053Z,99.90
2018-09-15T03:55:30.144Z,99.90
2018-09-15T03:57:58.210Z,99.90
2018-09-15T04:00:26.303Z,99.90
2018-09-15T04:02:54.382Z,99.90
2018-09-15T04:05:22.486Z,99.90
2018-09-15T04:07:50.553Z,99.90
2018-09-15T04:10:18.629Z,99.90
2018-09-15T04:12:47.085Z,99.90
2018-09-15T04:15:15.386Z,99.90
2018-09-15T04:17:43.538Z,99.90
2018-09-15T04:20:11.652Z,99.90
2018-09-15T04:22:39.892Z,99.90
2018-09-15T04:25:08.015Z,99.90
2018-09-15T04:27:36.141Z,99.90
2018-09-15T04:30:04.566Z,99.90
2018-09-15T04:32:32.805Z,99.90
2018-09-15T04:35:00.869Z,99.90
2018-09-15T04:37:28.989Z,99.90
2018-09-15T04:39:57.073Z,99.90
2018-09-15T04:42:31.782Z,99.90
2018-09-15T04:44:59.872Z,99.90
2018-09-15T04:47:27.940Z,99.90
2018-09-15T04:49:56.032Z,99.90
2018-09-15T04:52:24.109Z,99.90
2018-09-15T04:54:52.280Z,99.90
2018-09-15T04:57:20.359Z,99.90
2018-09-15T04:59:48.470Z,99.90
2018-09-15T05:02:16.541Z,99.90
2018-09-15T05:04:44.705Z,99.90
2018-09-15T05:07:12.798Z,99.90
2018-09-15T05:09:40.874Z,99.90
2018-09-15T05:12:08.956Z,99.90
2018-09-15T05:14:37.023Z,99.90
2018-09-15T05:17:05.106Z,99.90
2018-09-15T05:19:33.240Z,99.90
2018-09-15T05:22:01.339Z,99.90
2018-09-15T05:24:29.400Z,99.90
2018-09-15T05:26:57.463Z,99.90
2018-09-15T05:29:25.566Z,99.90
2018-09-15T05:31:53.630Z,99.90
2018-09-15T05:34:21.715Z,99.90
2018-09-15T05:36:50.285Z,99.90
2018-09-15T05:39:18.357Z,99.90
2018-09-15T05:41:46.429Z,99.90
2018-09-15T05:44:14.496Z,99.90
2018-09-15T05:46:42.628Z,99.90
2018-09-15T05:49:10.720Z,99.90
2018-09-15T05:51:38.949Z,99.90
2018-09-15T05:54:07.069Z,99.90
2018-09-15T05:56:35.243Z,99.90
2018-09-15T05:59:03.349Z,99.90
2018-09-15T06:01:31.444Z,99.90
2018-09-15T06:03:59.701Z,99.90
2018-09-15T06:06:27.783Z,99.90
2018-09-15T06:08:55.861Z,99.90
2018-09-15T06:11:23.949Z,99.90
2018-09-15T06:13:52.044Z,99.90
2018-09-15T06:16:20.109Z,99.90
2018-09-15T06:18:48.232Z,99.90
2018-09-15T06:21:16.338Z,99.90
2018-09-15T06:23:45.380Z,99.90
2018-09-15T06:26:13.926Z,99.90
2018-09-15T06:28:42.331Z,99.90
2018-09-15T06:31:10.458Z,99.90
2018-09-15T06:33:38.572Z,99.90
2018-09-15T06:36:06.637Z,99.90
2018-09-15T06:38:34.739Z,99.90
2018-09-15T06:41:02.838Z,99.90
2018-09-15T06:43:30.933Z,99.90
2018-09-15T06:45:59.116Z,99.90
2018-09-15T06:48:27.497Z,99.90
2018-09-15T06:50:55.658Z,99.90
2018-09-15T06:53:23.761Z,99.90
2018-09-15T06:55:51.869Z,99.90
2018-09-15T06:58:19.947Z,99.90
2018-09-15T07:00:48.062Z,99.90
2018-09-15T07:03:16.129Z,99.90
2018-09-15T07:05:44.198Z,99.90
2018-09-15T07:08:12.291Z,99.90
2018-09-15T07:10:40.360Z,99.90
2018-09-15T07:13:08.507Z,99.90
2018-09-15T07:15:36.606Z,99.90
2018-09-15T07:18:04.682Z,99.90
2018-09-15T07:20:32.777Z,99.90
2018-09-15T07:23:00.856Z,99.90
2018-09-15T07:25:28.994Z,99.90
2018-09-15T07:27:57.073Z,99.90
2018-09-15T07:30:25.166Z,99.90
2018-09-15T07:32:53.258Z,99.90
2018-09-15T07:35:21.330Z,99.90
2018-09-15T07:37:49.523Z,99.90
2018-09-15T07:40:17.550Z,99.90
2018-09-15T07:42:45.623Z,99.90
2018-09-15T07:45:13.692Z,99.90
2018-09-15T07:47:41.834Z,99.90
2018-09-15T07:50:09.922Z,99.90
2018-09-15T07:52:37.996Z,99.90
2018-09-15T07:55:06.064Z,99.90
2018-09-15T07:57:34.227Z,99.90
2018-09-15T08:00:02.205Z,99.90
2018-09-15T08:02:30.349Z,99.90
2018-09-15T08:04:58.567Z,99.90
2018-09-15T08:07:26.642Z,99.90
2018-09-15T08:09:54.774Z,99.90
2018-09-15T08:12:22.858Z,99.90
2018-09-15T08:14:50.965Z,99.90
2018-09-15T08:17:19.030Z,99.90
2018-09-15T08:19:47.137Z,99.90
2018-09-15T08:22:15.208Z,99.90
2018-09-15T08:24:43.389Z,99.90
2018-09-15T08:27:11.481Z,99.90
2018-09-15T08:29:39.604Z,99.90
2018-09-15T08:32:07.789Z,99.90
2018-09-15T08:34:35.857Z,99.90
2018-09-15T08:37:03.942Z,99.90
2018-09-15T08:39:32.015Z,99.90
2018-09-15T08:42:00.168Z,99.90
2018-09-15T08:44:28.249Z,99.90
2018-09-15T08:46:56.338Z,99.90
2018-09-15T08:49:24.427Z,99.90
2018-09-15T08:51:52.557Z,99.90
2018-09-15T08:54:20.748Z,99.90
2018-09-15T08:56:48.838Z,99.90
2018-09-15T08:59:16.928Z,99.90
2018-09-15T09:01:45.006Z,99.90
2018-09-15T09:04:13.829Z,99.90
2018-09-15T09:06:42.034Z,99.90
2018-09-15T09:09:11.491Z,99.90
2018-09-15T09:11:40.477Z,98.90
2018-09-15T09:14:08.617Z,98.80
2018-09-15T09:16:36.703Z,98.10
2018-09-15T09:19:04.858Z,95.20
2018-09-15T09:21:32.941Z,94.20
2018-09-15T09:24:01.035Z,91.00
2018-09-15T09:26:29.302Z,88.70
2018-09-15T09:28:57.257Z,87.60
2018-09-15T09:31:25.404Z,86.50
2018-09-15T09:33:53.489Z,81.80
2018-09-15T09:36:21.612Z,77.20
2018-09-15T09:38:49.698Z,73.70
2018-09-15T09:41:17.928Z,74.10
2018-09-15T09:43:46.166Z,73.20
2018-09-15T09:46:14.382Z,71.20
2018-09-15T09:48:42.519Z,70.40
2018-09-15T09:51:10.608Z,71.60
2018-09-15T09:53:38.710Z,67.80
2018-09-15T09:56:06.800Z,65.90
2018-09-15T09:58:34.959Z,64.50
2018-09-15T10:01:08.409Z,62.70
2018-09-15T10:03:37.609Z,66.00
2018-09-15T10:06:05.728Z,63.60
2018-09-15T10:08:33.943Z,61.80
2018-09-15T10:11:02.019Z,60.40
2018-09-15T10:13:30.202Z,57.30
2018-09-15T10:15:58.315Z,56.80
2018-09-15T10:18:26.393Z,54.70
2018-09-15T10:20:54.481Z,53.80
2018-09-15T10:23:22.569Z,53.00
2018-09-15T10:25:50.746Z,51.60
2018-09-15T10:28:18.849Z,50.80
2018-09-15T10:30:46.954Z,50.30
2018-09-15T10:33:15.090Z,50.10
2018-09-15T10:35:43.432Z,47.80
2018-09-15T10:38:11.590Z,49.80
2018-09-15T10:40:39.737Z,49.20
2018-09-15T10:43:08.493Z,48.90
2018-09-15T10:45:36.659Z,48.90
2018-09-15T10:48:04.957Z,48.90
2018-09-15T10:50:33.050Z,47.10
2018-09-15T10:53:01.246Z,46.40
2018-09-15T10:55:29.373Z,44.70
2018-09-15T10:57:57.506Z,44.50
2018-09-15T11:00:25.639Z,44.40
2018-09-15T11:02:53.749Z,43.50
2018-09-15T11:05:21.837Z,43.40
2018-09-15T11:07:49.914Z,42.30
2018-09-15T11:10:18.005Z,43.00
2018-09-15T11:12:46.102Z,42.30
2018-09-15T11:15:14.248Z,40.60
2018-09-15T11:17:42.341Z,41.20
2018-09-15T11:20:10.462Z,42.50
2018-09-15T11:22:38.612Z,43.10
2018-09-15T11:25:06.676Z,43.80
2018-09-15T11:27:34.948Z,41.80
2018-09-15T11:30:06.923Z,41.30
2018-09-15T11:32:35.091Z,41.60
2018-09-15T11:35:03.253Z,41.60
2018-09-15T11:37:32.075Z,42.40
2018-09-15T11:40:00.383Z,41.50
2018-09-15T11:42:29.194Z,41.20
2018-09-15T11:44:57.310Z,39.30
2018-09-15T11:47:25.374Z,36.80
2018-09-15T11:49:54.446Z,37.10
2018-09-15T11:52:22.521Z,37.70
2018-09-15T11:54:50.581Z,37.70
2018-09-15T11:57:18.658Z,37.50
2018-09-15T11:59:46.747Z,37.60
2018-09-15T12:02:14.841Z,36.90
2018-09-15T12:04:43.103Z,36.30
2018-09-15T12:07:11.226Z,37.90
2018-09-15T12:09:39.329Z,37.40
2018-09-15T12:12:07.389Z,38.60
2018-09-15T12:14:35.501Z,38.80
2018-09-15T12:17:03.562Z,40.80
2018-09-15T12:19:31.642Z,42.70
2018-09-15T12:21:59.757Z,44.30
2018-09-15T12:24:27.856Z,44.70
2018-09-15T12:26:55.925Z,45.60
2018-09-15T12:29:24.005Z,46.00
2018-09-15T12:31:52.069Z,45.90
2018-09-15T12:34:20.147Z,46.20
2018-09-15T12:36:48.218Z,45.40
2018-09-15T12:39:16.299Z,45.10
2018-09-15T12:41:44.418Z,45.00
2018-09-15T12:44:12.518Z,45.20
2018-09-15T12:46:40.730Z,46.30
2018-09-15T12:49:08.809Z,49.10
2018-09-15T12:51:36.886Z,47.90
2018-09-15T12:54:05.005Z,48.60
2018-09-15T12:56:33.072Z,50.00
2018-09-15T12:59:01.209Z,48.80
2018-09-15T13:01:29.308Z,48.20
2018-09-15T13:03:57.430Z,48.80
2018-09-15T13:06:25.555Z,49.30
2018-09-15T13:08:53.594Z,49.00
2018-09-15T13:11:21.681Z,48.00
2018-09-15T13:13:49.788Z,48.10
2018-09-15T13:16:17.939Z,49.10
2018-09-15T13:18:46.023Z,49.20
2018-09-15T13:21:14.123Z,49.40
2018-09-15T13:23:42.273Z,49.80
2018-09-15T13:26:10.330Z,50.40
2018-09-15T13:28:38.485Z,49.60
2018-09-15T13:31:06.557Z,50.20
2018-09-15T13:33:34.634Z,50.00
2018-09-15T13:36:02.749Z,50.00
2018-09-15T13:38:30.921Z,49.20
2018-09-15T13:40:58.980Z,49.20
2018-09-15T13:43:27.041Z,50.20
2018-09-15T13:45:55.153Z,50.40
2018-09-15T13:48:23.242Z,51.00
2018-09-15T13:50:51.322Z,51.50
2018-09-15T13:53:19.451Z,50.90
2018-09-15T13:55:47.501Z,51.60
2018-09-15T13:58:15.609Z,52.00
2018-09-15T14:00:43.710Z,52.20
2018-09-15T14:03:11.789Z,52.10
2018-09-15T14:05:39.916Z,52.80
2018-09-15T14:08:07.995Z,51.60
2018-09-15T14:10:36.196Z,51.40
2018-09-15T14:13:04.208Z,50.70
2018-09-15T14:15:32.290Z,51.00
2018-09-15T14:18:01.476Z,51.30
2018-09-15T14:20:29.552Z,51.60
2018-09-15T14:22:57.626Z,51.50
2018-09-15T14:25:25.686Z,51.10
2018-09-15T14:27:53.761Z,51.50
2018-09-15T14:30:21.823Z,51.70
2018-09-15T14:32:49.921Z,52.00
2018-09-15T14:35:18.045Z,52.00
2018-09-15T14:37:46.146Z,52.30
2018-09-15T14:40:14.214Z,52.70
2018-09-15T14:42:42.313Z,53.60
2018-09-15T14:45:10.382Z,53.90
2018-09-15T14:47:38.506Z,54.30
2018-09-15T14:50:06.633Z,54.40
2018-09-15T14:52:34.681Z,54.80
2018-09-15T14:55:02.826Z,55.10
2018-09-15T14:57:30.903Z,56.00
2018-09-15T14:59:58.956Z,55.60
2018-09-15T15:02:27.050Z,55.80
2018-09-15T15:04:55.174Z,56.00
2018-09-15T15:07:23.276Z,56.10
2018-09-15T15:09:51.386Z,55.50
2018-09-15T15:12:19.524Z,55.80
2018-09-15T15:14:47.708Z,56.80
2018-09-15T15:17:15.858Z,55.90
2018-09-15T15:19:44.040Z,56.30
2018-09-15T15:22:12.214Z,57.00
2018-09-15T15:24:40.352Z,57.40
2018-09-15T15:27:08.548Z,57.00
2018-09-15T15:29:36.731Z,57.20
2018-09-15T15:32:04.858Z,57.50
2018-09-15T15:34:33.011Z,57.10
2018-09-15T15:37:01.193Z,57.80
2018-09-15T15:39:29.363Z,57.80
2018-09-15T15:41:57.554Z,58.90
2018-09-15T15:44:25.721Z,58.50
2018-09-15T15:47:00.441Z,59.00
2018-09-15T15:49:28.704Z,58.80
2018-09-15T15:51:56.772Z,58.70
2018-09-15T15:54:24.848Z,59.70
2018-09-15T15:56:52.972Z,59.10
2018-09-15T15:59:21.038Z,59.60
2018-09-15T16:01:49.296Z,61.40
2018-09-15T16:04:17.332Z,60.00
2018-09-15T16:06:45.479Z,60.40
2018-09-15T16:09:14.344Z,61.00
2018-09-15T16:11:42.437Z,62.30
2018-09-15T16:14:10.545Z,61.60
2018-09-15T16:16:38.638Z,61.50
2018-09-15T16:19:06.725Z,62.70
2018-09-15T16:21:34.819Z,62.90
2018-09-15T16:24:03.182Z,63.00
2018-09-15T16:26:31.253Z,63.60
2018-09-15T16:28:59.341Z,64.20
2018-09-15T16:31:27.445Z,64.20
2018-09-15T16:33:56.176Z,64.80
2018-09-15T16:36:25.125Z,64.80
2018-09-15T16:38:53.193Z,64.50
2018-09-15T16:41:21.261Z,65.80
2018-09-15T16:43:49.322Z,65.70
2018-09-15T16:46:17.410Z,66.00
2018-09-15T16:48:45.457Z,66.00
2018-09-15T16:51:13.541Z,67.70
2018-09-15T16:53:41.616Z,68.50
2018-09-15T16:56:09.681Z,67.10
2018-09-15T16:58:37.766Z,69.10
2018-09-15T17:01:06.157Z,69.70
2018-09-15T17:03:34.298Z,69.10
2018-09-15T17:06:02.338Z,69.70
2018-09-15T17:08:30.501Z,70.00
2018-09-15T17:10:58.597Z,72.10
2018-09-15T17:13:26.699Z,72.60
2018-09-15T17:15:54.891Z,74.10
2018-09-15T17:18:22.987Z,75.80
2018-09-15T17:20:51.074Z,76.20
2018-09-15T17:23:19.192Z,76.40
2018-09-15T17:25:47.281Z,75.60
2018-09-15T17:28:15.378Z,75.70
2018-09-15T17:30:43.596Z,76.80
2018-09-15T17:33:11.700Z,77.00
2018-09-15T17:35:39.782Z,78.10
2018-09-15T17:38:07.878Z,79.70
2018-09-15T17:40:35.993Z,78.50
2018-09-15T17:43:04.093Z,79.70
2018-09-15T17:45:32.238Z,79.70
2018-09-15T17:48:00.275Z,80.40
2018-09-15T17:50:28.371Z,81.60
2018-09-15T17:52:56.521Z,81.80
2018-09-15T17:55:24.614Z,82.40
2018-09-15T17:57:52.721Z,83.10
2018-09-15T18:00:20.812Z,84.20
2018-09-15T18:02:48.928Z,84.80
2018-09-15T18:05:17.021Z,85.50
2018-09-15T18:07:45.159Z,86.20
2018-09-15T18:10:13.280Z,86.80
2018-09-15T18:12:41.353Z,87.60
2018-09-15T18:15:09.482Z,88.30
2018-09-15T18:17:37.565Z,89.40
2018-09-15T18:20:05.709Z,90.40
2018-09-15T18:22:33.833Z,90.60
2018-09-15T18:25:01.913Z,90.90
2018-09-15T18:27:30.022Z,91.10
2018-09-15T18:29:58.117Z,91.70
2018-09-15T18:32:26.209Z,92.60
2018-09-15T18:34:54.310Z,92.80
2018-09-15T18:37:22.399Z,94.00
2018-09-15T18:39:50.481Z,94.40
2018-09-15T18:42:18.554Z,94.00
2018-09-15T18:44:47.317Z,94.50
2018-09-15T18:47:15.418Z,95.20
2018-09-15T18:49:43.504Z,95.00
2018-09-15T18:52:11.564Z,95.60
2018-09-15T18:54:39.671Z,96.60
2018-09-15T18:57:07.846Z,96.60
2018-09-15T18:59:36.104Z,97.10
2018-09-15T19:02:04.249Z,96.90
2018-09-15T19:04:32.353Z,97.40
2018-09-15T19:07:00.458Z,97.40
2018-09-15T19:09:28.662Z,97.90
2018-09-15T19:11:56.745Z,98.10
2018-09-15T19:14:24.845Z,98.30
2018-09-15T19:16:52.931Z,99.20
2018-09-15T19:19:21.028Z,99.10
2018-09-15T19:21:49.473Z,99.90
2018-09-15T19:24:17.576Z,99.20
2018-09-15T19:26:45.721Z,99.90
2018-09-15T19:29:13.796Z,99.50
2018-09-15T19:31:41.980Z,99.60
2018-09-15T19:34:10.078Z,99.90
2018-09-15T19:36:38.194Z,99.90
2018-09-15T19:39:09.845Z,99.90
2018-09-15T19:41:37.997Z,99.90
2018-09-15T19:44:06.113Z,99.90
2018-09-15T19:46:34.265Z,99.90
2018-09-15T19:49:02.352Z,99.90
2018-09-15T19:51:30.525Z,99.90
2018-09-15T19:53:58.718Z,99.90
2018-09-15T19:56:27.006Z,99.90
2018-09-15T19:58:55.077Z,99.90
2018-09-15T20:01:23.221Z,99.90
2018-09-15T20:03:51.349Z,99.90
2018-09-15T20:06:19.450Z,99.90
2018-09-15T20:08:47.557Z,99.90
2018-09-15T20:11:15.635Z,99.90
2018-09-15T20:13:43.725Z,99.90
2018-09-15T20:16:10.924Z,99.90
2018-09-15T20:18:38.112Z,99.90
2018-09-15T20:21:05.366Z,99.90
2018-09-15T20:23:33.493Z,99.90
2018-09-15T20:26:01.575Z,99.90
2018-09-15T20:28:29.649Z,99.90
2018-09-15T20:30:57.729Z,99.90
2018-09-15T20:33:25.814Z,99.90
2018-09-15T20:35:53.902Z,99.90
2018-09-15T20:38:22.000Z,99.90
2018-09-15T20:40:50.046Z,99.90
2018-09-15T20:43:18.186Z,99.90
2018-09-15T20:45:46.282Z,99.90
2018-09-15T20:48:14.421Z,99.90
2018-09-15T20:50:42.521Z,99.90
2018-09-15T20:53:10.638Z,99.90
2018-09-15T20:55:38.741Z,99.90
2018-09-15T20:58:06.831Z,99.90
2018-09-15T21:00:34.915Z,99.90
2018-09-15T21:03:03.025Z,99.90
2018-09-15T21:05:31.116Z,99.90
2018-09-15T21:07:59.232Z,99.90
2018-09-15T21:10:27.317Z,99.90
2018-09-15T21:12:55.413Z,99.90
2018-09-15T21:15:23.514Z,99.90
2018-09-15T21:17:51.585Z,99.90
2018-09-15T21:20:19.661Z,99.90
2018-09-15T21:22:47.761Z,99.90
2018-09-15T21:25:15.873Z,99.90
2018-09-15T21:27:43.973Z,99.90
2018-09-15T21:30:12.121Z,99.90
2018-09-15T21:32:40.219Z,99.90
2018-09-15T21:35:08.302Z,99.90
2018-09-15T21:37:36.456Z,99.90
2018-09-15T21:40:04.537Z,99.90
2018-09-15T21:42:32.613Z,99.90
2018-09-15T21:45:00.697Z,99.90
2018-09-15T21:47:28.808Z,99.90
2018-09-15T21:49:56.987Z,99.90
2018-09-15T21:52:25.073Z,99.90
2018-09-15T21:54:53.167Z,99.90
2018-09-15T21:57:21.240Z,99.90
2018-09-15T21:59:49.313Z,99.90
2018-09-15T22:02:17.427Z,99.90
2018-09-15T22:04:45.493Z,99.90
2018-09-15T22:07:13.558Z,99.90
2018-09-15T22:09:41.670Z,99.90
2018-09-15T22:12:09.746Z,99.90
2018-09-15T22:14:37.809Z,99.90
2018-09-15T22:17:05.916Z,99.90
2018-09-15T22:19:34.054Z,99.90
2018-09-15T22:22:02.168Z,99.90
2018-09-15T22:24:30.267Z,99.90
2018-09-15T22:26:58.337Z,99.90
2018-09-15T22:29:26.408Z,99.90
2018-09-15T22:31:54.513Z,99.90
2018-09-15T22:34:22.589Z,99.90
2018-09-15T22:36:50.689Z,99.90
2018-09-15T22:39:19.001Z,99.90
2018-09-15T22:41:47.077Z,99.90
2018-09-15T22:44:15.159Z,99.90
2018-09-15T22:46:43.221Z,99.90
2018-09-15T22:49:11.314Z,99.90
2018-09-15T22:51:39.420Z,99.90
2018-09-15T22:54:07.529Z,99.90
2018-09-15T22:56:35.629Z,99.90
2018-09-15T22:59:03.710Z,99.90
2018-09-15T23:01:31.820Z,99.90
2018-09-15T23:04:05.682Z,99.90
2018-09-15T23:06:34.065Z,99.90
2018-09-15T23:09:02.193Z,99.90
2018-09-15T23:11:30.293Z,99.90
2018-09-15T23:13:58.331Z,99.90
2018-09-15T23:16:26.388Z,99.90
2018-09-15T23:18:54.476Z,99.90
2018-09-15T23:21:22.548Z,99.90
2018-09-15T23:23:50.704Z,99.90
2018-09-15T23:26:18.768Z,99.90
2018-09-15T23:28:46.847Z,99.90
2018-09-15T23:31:14.892Z,99.90
2018-09-15T23:33:42.958Z,99.90
2018-09-15T23:36:11.035Z,99.90
2018-09-15T23:38:39.175Z,99.90
2018-09-15T23:41:07.569Z,99.90
2018-09-15T23:43:35.640Z,99.90
2018-09-15T23:46:03.748Z,99.90
2018-09-15T23:48:31.800Z,99.90
2018-09-15T23:50:59.895Z,99.90
2018-09-15T23:53:27.935Z,99.90
2018-09-15T23:55:55.989Z,99.90
2018-09-15T23:58:24.058Z,99.90
